Pequabuck, CT (06781)

2:21 AM EDT on September 01, 2016 (GMT -0400)
Near Terryville Fairground | | Change Station

Elev 820 ft 41.68 °N, 73.03 °W | Updated 11 seconds ago

Mostly Cloudy
Mostly Cloudy
69.4 °F
Feels Like 69.4 °F
N
1.0
Wind Variable Wind from West

Today
High -- | Low -- °F
--% Chance of Precip.
Yesterday
High -- | Low -- °F
Precip. -- in
Pressure 29.84 in
Visibility 10.0 miles
Clouds Mostly Cloudy 5500 ft
Dew Point 66 °F
Humidity 90%
Rainfall 0.00 in
Snow Depth Not available.
6:18 AM 7:24 PM
Waning Crescent, 0% visible
METAR KMMK 010553Z AUTO 00000KT 10SM BKN055 23/21 A2985 RMK AO2 SLP105 60000 T02280206 10250 20228 58014 TSNO
Pressure 29.84 in
Visibility 10.0 miles
Clouds Mostly Cloudy 5500 ft
Dew Point 66 °F
Humidity 90%
Rainfall 0.00 in
Snow Depth Not available.
6:18 AM 7:24 PM
Waning Crescent, 0% visible
METAR KMMK 010553Z AUTO 00000KT 10SM BKN055 23/21 A2985 RMK AO2 SLP105 60000 T02280206 10250 20228 58014 TSNO

10-Day Weather Forecast

Almanac

Astronomy

Sep. 01, 2016 Rise Set
Actual Time
Civil Twilight
Nautical Twilight
Astronomical Twilight
Moon
Length of Visible Light
Length of Day
Tomorrow will be .
, % of the Moon is Illuminated

Today's Extremes

State Highs State Lows

Community

WunderPhotos

Upload Photos

1,936,313 photos uploaded!

WunderBlog® & News

Nearby

Air Quality

  Air Quality AQ Index Pollutant
Not available.

Snow Depth

Station Depth Elevation

Earthquake Activity

City Distance Mag. Time & Date
Minimum magnitude displayed is 2.5.

Coastal Water Temperatures

Place Temperature

Stations

Nearby Weather Stations

Station Location Temp. Windchill Dew Point Humidity Wind Precip. Elev Updated Type
                   

Watches & Warnings

There are currently no watches in effect.